首页
METAR-TAF:

METAR-TAF

机场 :

弗雷斯诺优胜美地国际机场

弗雷斯诺, 加利福尼亚州, 美国

纬度: 36-46-48N, 经度: 119-43-10W, 海拔: 101米

当前天气观测

该预报发布于18分钟前的10:53 UTC
风速3节,风向
温度 18°C
湿度 42%
气压 1008 hPa
能見度: 16.1公里
少量云层高于20000英尺

METAR: KFAT 191053Z 36003KT 10SM FEW200 18/05 A2978 RMK AO2 SLP081 T01830050

时间: 04:11 (11:11 UTC)

预报

该预报发布于5小时和51分钟前的05:20 UTC
预报有效从19日的 06点(UTC)到 20日的 06点(UTC)
风速6节,风向西北
能見度: 10公里
天空无云

TAF: KFAT 190520Z 1906/2006 31006KT P6SM SKC

超过4000个机场的气象观测和天气预报(METAR&TAF报告)。

可查询的气象台以黄色和红色小点在地图上表示。

将鼠标移到小点上方,可查看气象台名称。

然后点击查看天气观测和预报。

如需切换地图:点击带黑十字的绿色按钮放大地图;点击带横线的绿色按钮缩小地图;或者点击绿色箭头查看邻近地区的地图。


METAR-TAF: